createdAt,value
2022-11-14T00:02:06.211Z,9.41
2022-11-14T00:04:38.334Z,9.43
2022-11-14T00:07:07.821Z,9.37
2022-11-14T00:09:38.672Z,9.19
2022-11-14T00:12:08.688Z,9.05
2022-11-14T00:14:38.291Z,9.01
2022-11-14T00:17:07.997Z,9.16
2022-11-14T00:19:40.033Z,9.19
2022-11-14T00:22:09.547Z,9.16
2022-11-14T00:24:39.041Z,9.15
2022-11-14T00:27:08.533Z,9.10
2022-11-14T00:29:38.653Z,9.08
2022-11-14T00:32:08.707Z,8.98
2022-11-14T00:34:40.805Z,8.82
2022-11-14T00:37:10.251Z,8.73
2022-11-14T00:39:39.705Z,8.64
2022-11-14T00:42:09.285Z,8.68
2022-11-14T00:44:38.773Z,8.68
2022-11-14T00:47:08.385Z,8.71
2022-11-14T00:49:40.484Z,8.71
2022-11-14T00:52:09.984Z,8.75
2022-11-14T00:54:39.430Z,8.80
2022-11-14T00:57:09.064Z,8.77
2022-11-14T00:59:38.525Z,8.76
2022-11-14T01:02:08.029Z,8.74
2022-11-14T01:04:40.125Z,8.81
2022-11-14T01:07:09.641Z,8.82
2022-11-14T01:09:39.274Z,8.83
2022-11-14T01:12:08.801Z,8.78
2022-11-14T01:14:54.785Z,8.66
2022-11-14T01:17:24.408Z,8.74
2022-11-14T01:19:56.491Z,8.80
2022-11-14T01:22:25.987Z,8.84
2022-11-14T01:24:58.362Z,8.87
2022-11-14T01:27:27.950Z,8.89
2022-11-14T01:29:57.490Z,8.74
2022-11-14T01:32:26.969Z,8.81
2022-11-14T01:34:59.065Z,8.76
2022-11-14T01:37:28.562Z,8.80
2022-11-14T01:39:58.093Z,8.76
2022-11-14T01:42:27.773Z,8.76
2022-11-14T01:44:57.272Z,8.69
2022-11-14T01:47:28.522Z,8.75
2022-11-14T01:50:01.616Z,8.84
2022-11-14T01:52:31.909Z,8.78
2022-11-14T01:55:03.054Z,8.72
2022-11-14T01:57:32.724Z,8.70
2022-11-14T02:00:04.395Z,8.33
2022-11-14T02:02:33.893Z,8.17
2022-11-14T02:05:08.256Z,8.23
2022-11-14T02:07:40.355Z,8.56
2022-11-14T02:10:11.881Z,8.58
2022-11-14T02:12:41.356Z,8.66
2022-11-14T02:15:11.921Z,8.56
2022-11-14T02:17:41.413Z,8.61
2022-11-14T02:20:24.299Z,8.69
2022-11-14T02:22:53.744Z,8.72
2022-11-14T02:25:23.273Z,8.77
2022-11-14T02:27:52.825Z,8.33
2022-11-14T02:30:23.841Z,8.29
2022-11-14T02:35:45.382Z,8.65
2022-11-14T02:38:14.883Z,8.88
2022-11-14T02:40:44.350Z,9.03
2022-11-14T02:43:13.805Z,9.00
2022-11-14T02:45:43.287Z,8.99
2022-11-14T02:48:12.775Z,8.98
2022-11-14T02:50:44.834Z,8.99
2022-11-14T02:53:14.309Z,9.00
2022-11-14T02:55:43.829Z,8.99
2022-11-14T02:58:13.304Z,9.00
2022-11-14T03:01:05.994Z,9.01
2022-11-14T03:03:32.299Z,8.91
2022-11-14T03:06:05.060Z,8.89
2022-11-14T03:08:34.577Z,8.86
2022-11-14T03:11:06.928Z,8.69
2022-11-14T03:13:36.497Z,8.66
2022-11-14T03:16:10.051Z,8.72
2022-11-14T03:18:39.536Z,8.78
2022-11-14T03:21:11.968Z,8.64
2022-11-14T03:23:41.475Z,8.61
2022-11-14T03:26:11.840Z,8.63
2022-11-14T03:28:41.815Z,8.57
2022-11-14T03:31:12.475Z,8.62
2022-11-14T03:33:41.969Z,8.78
2022-11-14T03:36:14.072Z,8.79
2022-11-14T03:38:43.666Z,8.78
2022-11-14T03:41:13.549Z,8.75
2022-11-14T03:43:42.991Z,8.66
2022-11-14T03:46:12.446Z,8.60
2022-11-14T03:48:42.213Z,8.43
2022-11-14T03:51:14.300Z,8.67
2022-11-14T03:53:44.328Z,8.49
2022-11-14T03:56:13.902Z,8.55
2022-11-14T03:58:46.610Z,8.45
2022-11-14T04:01:16.850Z,8.30
2022-11-14T04:03:46.416Z,8.36
2022-11-14T04:06:18.963Z,8.05
2022-11-14T04:08:51.942Z,8.01
2022-11-14T04:11:22.059Z,7.57
2022-11-14T04:13:51.542Z,7.87
2022-11-14T04:16:21.029Z,7.81
2022-11-14T04:18:50.529Z,8.04
2022-11-14T04:21:22.634Z,7.96
2022-11-14T04:23:52.382Z,7.91
2022-11-14T04:26:21.925Z,7.97
2022-11-14T04:28:51.433Z,7.85
2022-11-14T04:31:20.899Z,7.95
2022-11-14T04:33:50.409Z,8.04
2022-11-14T04:36:22.485Z,8.07
2022-11-14T04:38:51.971Z,8.00
2022-11-14T04:41:21.449Z,8.06
2022-11-14T04:43:51.218Z,8.18
2022-11-14T04:46:20.743Z,8.23
2022-11-14T04:48:50.248Z,8.15
2022-11-14T04:51:22.319Z,8.29
2022-11-14T04:53:51.844Z,8.33
2022-11-14T04:56:23.227Z,8.30
2022-11-14T04:58:52.753Z,8.14
2022-11-14T05:01:22.300Z,7.82
2022-11-14T05:03:51.857Z,7.95
2022-11-14T05:06:23.946Z,7.59
2022-11-14T05:08:53.417Z,7.33
2022-11-14T05:11:27.958Z,7.16
2022-11-14T05:13:58.623Z,7.19
2022-11-14T05:16:28.125Z,7.17
2022-11-14T05:18:57.632Z,7.55
2022-11-14T05:21:29.691Z,7.84
2022-11-14T05:23:59.173Z,8.08
2022-11-14T05:26:28.660Z,8.16
2022-11-14T05:28:58.162Z,8.21
2022-11-14T05:31:27.676Z,8.25
2022-11-14T05:33:57.161Z,8.19
2022-11-14T05:36:29.224Z,8.32
2022-11-14T05:38:58.708Z,8.32
2022-11-14T05:41:28.211Z,8.31
2022-11-14T05:43:57.725Z,8.33
2022-11-14T05:46:27.256Z,8.31
2022-11-14T05:48:57.002Z,8.46
2022-11-14T05:51:29.080Z,8.41
2022-11-14T05:53:58.567Z,8.41
2022-11-14T05:56:28.046Z,8.36
2022-11-14T05:58:57.551Z,8.42
2022-11-14T06:01:27.921Z,8.34
2022-11-14T06:03:57.423Z,8.50
2022-11-14T06:06:29.493Z,8.51
2022-11-14T06:08:58.965Z,8.45
2022-11-14T06:11:28.450Z,8.50
2022-11-14T06:13:57.930Z,8.62
2022-11-14T06:16:27.412Z,8.47
2022-11-14T06:18:57.252Z,8.45
2022-11-14T06:21:29.323Z,8.37
2022-11-14T06:23:58.838Z,8.32
2022-11-14T06:26:30.272Z,8.35
2022-11-14T06:29:00.261Z,8.30
2022-11-14T06:31:29.940Z,8.23
2022-11-14T06:33:59.553Z,8.10
2022-11-14T06:36:32.343Z,8.23
2022-11-14T06:39:01.890Z,8.11
2022-11-14T06:41:31.371Z,8.25
2022-11-14T06:44:00.868Z,8.24
2022-11-14T06:46:30.365Z,8.11
2022-11-14T06:48:59.855Z,8.11
2022-11-14T06:51:31.927Z,8.22
2022-11-14T06:54:01.461Z,8.29
2022-11-14T06:56:31.031Z,8.34
2022-11-14T06:59:00.532Z,8.41
2022-11-14T07:01:30.032Z,8.44
2022-11-14T07:04:00.703Z,8.43
2022-11-14T07:06:33.312Z,8.32
2022-11-14T07:09:02.780Z,8.26
2022-11-14T07:11:33.215Z,8.30
2022-11-14T07:14:03.142Z,8.32
2022-11-14T07:16:34.972Z,8.39
2022-11-14T07:19:05.033Z,8.32
2022-11-14T07:21:37.319Z,8.37
2022-11-14T07:24:07.337Z,8.37
2022-11-14T07:26:36.913Z,8.35
2022-11-14T07:29:06.379Z,8.24
2022-11-14T07:31:35.905Z,8.36
2022-11-14T07:34:06.103Z,8.33
2022-11-14T07:36:38.179Z,8.14
2022-11-14T07:39:07.640Z,7.72
2022-11-14T07:41:37.106Z,7.89
2022-11-14T07:44:07.102Z,8.03
2022-11-14T07:46:36.637Z,8.14
2022-11-14T07:49:06.184Z,8.12
2022-11-14T07:51:38.294Z,8.25
2022-11-14T07:54:07.887Z,8.21
2022-11-14T07:56:37.372Z,8.21
2022-11-14T07:59:06.930Z,8.05
2022-11-14T08:01:36.452Z,7.91
2022-11-14T08:04:06.025Z,7.74
2022-11-14T08:06:38.097Z,7.61
2022-11-14T08:09:07.567Z,7.69
2022-11-14T08:11:52.131Z,8.13
2022-11-14T08:14:21.637Z,8.36
2022-11-14T08:16:51.149Z,8.40
2022-11-14T08:19:20.921Z,8.06
2022-11-14T08:21:52.990Z,7.72
2022-11-14T08:24:22.522Z,7.48
2022-11-14T08:26:51.991Z,7.36
2022-11-14T08:29:21.507Z,7.55
2022-11-14T08:31:54.486Z,7.54
2022-11-14T08:34:29.197Z,7.86
2022-11-14T08:37:01.226Z,8.07
2022-11-14T08:39:30.748Z,8.10
2022-11-14T08:42:00.243Z,7.79
2022-11-14T08:44:29.713Z,7.51
2022-11-14T08:47:00.371Z,7.20
2022-11-14T08:49:29.931Z,6.98
2022-11-14T08:52:01.996Z,7.00
2022-11-14T08:54:31.896Z,6.85
2022-11-14T08:57:01.373Z,6.75
2022-11-14T08:59:30.856Z,6.62
2022-11-14T09:02:00.401Z,6.65
2022-11-14T09:04:29.892Z,6.93
2022-11-14T09:07:02.037Z,7.07
2022-11-14T09:09:31.536Z,7.44
2022-11-14T09:12:00.998Z,7.62
2022-11-14T09:14:30.473Z,7.32
2022-11-14T09:17:05.539Z,7.34
2022-11-14T09:19:35.504Z,7.29
2022-11-14T09:22:07.558Z,7.40
2022-11-14T09:24:37.076Z,7.56
2022-11-14T09:27:06.641Z,7.74
2022-11-14T09:29:36.214Z,7.80
2022-11-14T09:32:05.837Z,8.11
2022-11-14T09:34:37.212Z,7.61
2022-11-14T09:37:09.276Z,7.50
2022-11-14T09:39:40.725Z,7.10
2022-11-14T09:42:18.764Z,7.04
2022-11-14T09:44:57.698Z,7.11
2022-11-14T09:47:28.743Z,6.89
2022-11-14T09:49:59.355Z,6.63
2022-11-14T09:52:36.477Z,6.73
2022-11-14T09:55:11.845Z,6.89
2022-11-14T09:57:41.531Z,6.94
2022-11-14T10:00:18.881Z,6.78
2022-11-14T10:02:58.418Z,6.74
2022-11-14T10:05:39.077Z,6.83
2022-11-14T10:08:27.672Z,7.17
2022-11-14T10:10:57.723Z,7.24
2022-11-14T10:13:33.982Z,7.52
2022-11-14T10:16:06.050Z,7.88
2022-11-14T10:18:42.212Z,7.76
2022-11-14T10:21:19.391Z,8.19
2022-11-14T10:23:54.908Z,8.17
2022-11-14T10:26:30.144Z,8.29
2022-11-14T10:29:14.855Z,8.48
2022-11-14T10:31:48.262Z,8.56
2022-11-14T10:34:20.653Z,8.85
2022-11-14T10:36:59.044Z,8.66
2022-11-14T10:39:33.489Z,9.02
2022-11-14T10:42:07.847Z,9.19
2022-11-14T10:44:39.762Z,8.71
2022-11-14T10:47:10.133Z,8.66
2022-11-14T10:49:39.851Z,8.80
2022-11-14T10:52:10.357Z,8.63
2022-11-14T10:54:43.893Z,8.65
2022-11-14T10:57:20.331Z,8.06
2022-11-14T10:59:50.021Z,8.13
2022-11-14T11:02:19.895Z,8.31
2022-11-14T11:04:49.484Z,8.87
2022-11-14T11:07:38.826Z,8.72
2022-11-14T11:10:34.668Z,9.10
2022-11-14T11:13:06.940Z,9.15
2022-11-14T11:15:42.743Z,8.98
2022-11-14T11:18:29.745Z,9.39
2022-11-14T11:21:10.635Z,9.84
2022-11-14T11:23:53.237Z,10.16
2022-11-14T11:26:26.415Z,9.75
2022-11-14T11:29:10.513Z,9.47
2022-11-14T11:31:52.901Z,9.09
2022-11-14T11:34:25.540Z,8.96
2022-11-14T11:36:56.990Z,9.07
2022-11-14T11:39:28.184Z,9.11
2022-11-14T11:42:09.829Z,9.28
2022-11-14T11:44:42.784Z,9.13
2022-11-14T11:47:13.914Z,9.35
2022-11-14T11:49:47.410Z,9.37
2022-11-14T11:52:22.774Z,9.42
2022-11-14T11:54:56.320Z,9.47
2022-11-14T11:57:32.279Z,9.51
2022-11-14T12:00:06.590Z,9.42
2022-11-14T12:02:36.152Z,9.41
2022-11-14T12:05:05.944Z,9.53
2022-11-14T12:07:39.990Z,10.07
2022-11-14T12:10:14.552Z,10.45
2022-11-14T12:13:02.627Z,10.87
2022-11-14T12:15:34.789Z,11.03
2022-11-14T12:18:38.163Z,11.19
2022-11-14T12:21:19.693Z,11.14
2022-11-14T12:24:10.196Z,10.85
2022-11-14T12:26:47.982Z,10.47
2022-11-14T12:29:28.416Z,10.78
2022-11-14T12:31:59.895Z,10.61
2022-11-14T12:34:30.268Z,10.36
2022-11-14T12:36:59.783Z,10.63
2022-11-14T12:39:30.132Z,10.88
2022-11-14T12:42:05.462Z,10.96
2022-11-14T12:44:39.234Z,11.07
2022-11-14T12:47:19.721Z,11.00
2022-11-14T12:50:09.004Z,11.14
2022-11-14T12:52:52.952Z,11.21
2022-11-14T12:56:09.917Z,11.13
2022-11-14T12:58:51.348Z,10.87
2022-11-14T13:01:35.489Z,10.69
2022-11-14T13:04:12.214Z,10.42
2022-11-14T13:06:46.070Z,10.18
2022-11-14T13:09:36.548Z,10.30
2022-11-14T13:12:42.837Z,10.63
2022-11-14T13:15:37.369Z,11.14
2022-11-14T13:18:28.025Z,11.34
2022-11-14T13:21:16.728Z,11.54
2022-11-14T13:23:59.217Z,11.59
2022-11-14T13:26:44.434Z,11.81
2022-11-14T13:30:02.708Z,11.91
2022-11-14T13:32:58.987Z,11.30
2022-11-14T13:35:46.848Z,10.72
2022-11-14T13:38:41.661Z,10.94
2022-11-14T13:41:37.234Z,10.58
2022-11-14T13:44:53.308Z,10.88
2022-11-14T13:47:52.458Z,10.85
2022-11-14T13:50:22.347Z,10.88
2022-11-14T13:52:54.446Z,10.77
2022-11-14T13:55:24.521Z,11.09
2022-11-14T13:58:02.709Z,10.53
2022-11-14T14:00:32.355Z,10.42
2022-11-14T14:03:18.122Z,10.83
2022-11-14T14:06:06.393Z,11.00
2022-11-14T14:08:49.930Z,11.10
2022-11-14T14:11:49.181Z,11.29
2022-11-14T14:14:28.996Z,10.94
2022-11-14T14:16:59.898Z,11.31
2022-11-14T14:19:37.689Z,11.41
2022-11-14T14:22:09.709Z,11.45
2022-11-14T14:24:49.879Z,11.48
2022-11-14T14:27:22.191Z,11.51
2022-11-14T14:29:56.193Z,11.49
2022-11-14T14:32:26.375Z,11.64
2022-11-14T14:34:58.568Z,11.73
2022-11-14T14:37:28.866Z,11.69
2022-11-14T14:40:01.608Z,11.75
2022-11-14T14:42:35.139Z,11.76
2022-11-14T14:45:04.852Z,11.75
2022-11-14T14:47:37.569Z,11.82
2022-11-14T14:50:09.440Z,11.80
2022-11-14T14:52:39.714Z,11.84
2022-11-14T14:55:24.040Z,11.83
2022-11-14T14:57:53.514Z,11.61
2022-11-14T15:00:26.101Z,11.76
2022-11-14T15:02:56.134Z,11.83
2022-11-14T15:05:26.335Z,11.99
2022-11-14T15:07:57.665Z,11.61
2022-11-14T15:10:31.874Z,11.80
2022-11-14T15:13:01.400Z,11.78
2022-11-14T15:15:31.157Z,11.91
2022-11-14T15:18:09.798Z,11.97
2022-11-14T15:20:39.282Z,11.90
2022-11-14T15:23:09.517Z,11.94
2022-11-14T15:25:41.667Z,12.07
2022-11-14T15:28:18.765Z,12.07
2022-11-14T15:30:59.036Z,12.00
2022-11-14T15:33:32.093Z,12.04
2022-11-14T15:36:09.190Z,12.17
2022-11-14T15:38:45.895Z,12.21
2022-11-14T15:41:24.790Z,12.17
2022-11-14T15:43:55.323Z,12.23
2022-11-14T15:46:42.394Z,12.13
2022-11-14T15:49:13.240Z,12.18
2022-11-14T15:51:44.713Z,12.26
2022-11-14T15:54:30.934Z,12.24
2022-11-14T15:57:04.292Z,12.11
2022-11-14T15:59:35.110Z,12.18
2022-11-14T16:02:07.117Z,12.10
2022-11-14T16:04:37.157Z,12.00
2022-11-14T16:07:06.746Z,12.03
2022-11-14T16:09:36.223Z,12.28
2022-11-14T16:12:08.622Z,12.34
2022-11-14T16:14:38.161Z,12.33
2022-11-14T16:17:07.665Z,12.29
2022-11-14T16:19:37.149Z,12.27
2022-11-14T16:22:06.605Z,12.27
2022-11-14T16:24:36.117Z,12.27
2022-11-14T16:27:08.217Z,12.29
2022-11-14T16:29:37.717Z,12.27
2022-11-14T16:32:07.421Z,12.27
2022-11-14T16:34:36.875Z,12.25
2022-11-14T16:37:06.358Z,12.20
2022-11-14T16:39:35.856Z,12.03
2022-11-14T16:42:08.492Z,11.98
2022-11-14T16:44:42.724Z,12.12
2022-11-14T16:47:15.429Z,12.23
2022-11-14T16:49:44.907Z,12.20
2022-11-14T16:52:16.544Z,12.15
2022-11-14T16:54:46.377Z,11.91
2022-11-14T16:57:18.436Z,11.99
2022-11-14T16:59:48.017Z,12.19
2022-11-14T17:02:18.338Z,12.31
2022-11-14T17:04:47.926Z,12.32
2022-11-14T17:07:21.701Z,12.29
2022-11-14T17:09:52.407Z,12.32
2022-11-14T17:12:24.543Z,12.35
2022-11-14T17:14:54.581Z,12.43
2022-11-14T17:17:24.092Z,12.53
2022-11-14T17:19:53.545Z,12.55
2022-11-14T17:22:23.046Z,12.54
2022-11-14T17:24:52.495Z,12.55
2022-11-14T17:27:24.606Z,12.51
2022-11-14T17:29:54.370Z,12.49
2022-11-14T17:32:23.825Z,12.50
2022-11-14T17:34:53.334Z,12.46
2022-11-14T17:37:22.800Z,12.40
2022-11-14T17:39:52.275Z,12.44
2022-11-14T17:42:24.350Z,12.41
2022-11-14T17:44:53.817Z,12.36
2022-11-14T17:47:23.296Z,12.36
2022-11-14T17:49:52.844Z,12.27
2022-11-14T17:52:25.207Z,12.25
2022-11-14T17:54:54.684Z,12.22
2022-11-14T17:57:26.736Z,12.23
2022-11-14T17:59:56.275Z,12.22
2022-11-14T18:02:25.781Z,12.27
2022-11-14T18:04:55.274Z,12.21
2022-11-14T18:07:24.799Z,12.26
2022-11-14T18:09:54.368Z,12.25
2022-11-14T18:12:26.506Z,12.33
2022-11-14T18:14:55.977Z,12.38
2022-11-14T18:17:25.517Z,12.49
2022-11-14T18:19:56.199Z,12.36
2022-11-14T18:22:25.693Z,12.33
2022-11-14T18:24:55.225Z,12.35
2022-11-14T18:27:27.282Z,12.42
2022-11-14T18:30:07.942Z,12.39
2022-11-14T18:32:43.059Z,12.47
2022-11-14T18:35:12.744Z,12.38
2022-11-14T18:37:42.187Z,12.34
2022-11-14T18:40:16.691Z,12.39
2022-11-14T18:42:49.048Z,12.30
2022-11-14T18:45:18.670Z,12.41
2022-11-14T18:47:48.124Z,12.40
2022-11-14T18:50:17.663Z,12.43
2022-11-14T18:52:47.136Z,12.41
2022-11-14T18:55:16.821Z,12.43
2022-11-14T18:57:48.838Z,12.43
2022-11-14T19:00:19.027Z,12.40
2022-11-14T19:02:52.239Z,12.39
2022-11-14T19:05:21.958Z,12.37
2022-11-14T19:07:51.430Z,12.36
2022-11-14T19:10:21.112Z,12.35
2022-11-14T19:12:53.144Z,12.34
2022-11-14T19:15:22.638Z,12.43
2022-11-14T19:17:52.103Z,12.42
2022-11-14T19:20:21.735Z,12.37
2022-11-14T19:22:51.424Z,12.40
2022-11-14T19:25:20.983Z,12.39
2022-11-14T19:27:55.238Z,12.33
2022-11-14T19:30:24.786Z,12.33
2022-11-14T19:32:54.401Z,12.32
2022-11-14T19:35:23.914Z,12.30
2022-11-14T19:37:53.356Z,12.30
2022-11-14T19:40:22.796Z,12.31
2022-11-14T19:43:01.909Z,12.30
2022-11-14T19:45:31.422Z,12.25
2022-11-14T19:48:00.864Z,12.24
2022-11-14T19:50:30.304Z,12.21
2022-11-14T19:53:00.028Z,12.22
2022-11-14T19:55:29.505Z,12.27
2022-11-14T19:58:01.634Z,12.29
2022-11-14T20:00:31.931Z,12.31
2022-11-14T20:03:01.385Z,12.12
2022-11-14T20:05:30.831Z,12.25
2022-11-14T20:08:00.305Z,12.28
2022-11-14T20:10:29.747Z,12.26
2022-11-14T20:13:01.804Z,12.30
2022-11-14T20:15:32.284Z,12.29
2022-11-14T20:18:01.740Z,12.25
2022-11-14T20:20:31.167Z,12.06
2022-11-14T20:23:00.647Z,12.09
2022-11-14T20:25:30.105Z,12.12
2022-11-14T20:28:02.332Z,12.06
2022-11-14T20:30:31.806Z,12.01
2022-11-14T20:33:01.290Z,12.02
2022-11-14T20:35:30.802Z,12.03
2022-11-14T20:38:04.262Z,11.80
2022-11-14T20:40:34.251Z,11.87
2022-11-14T20:43:07.245Z,11.96
2022-11-14T20:45:36.723Z,11.97
2022-11-14T20:48:06.546Z,11.83
2022-11-14T20:50:36.031Z,11.91
2022-11-14T20:53:05.527Z,12.03
2022-11-14T20:55:34.976Z,11.89
2022-11-14T20:58:07.045Z,11.92
2022-11-14T21:00:36.540Z,11.91
2022-11-14T21:03:06.027Z,11.82
2022-11-14T21:05:35.453Z,11.94
2022-11-14T21:08:04.892Z,11.92
2022-11-14T21:10:50.748Z,11.99
2022-11-14T21:13:39.234Z,11.92
2022-11-14T21:16:10.152Z,11.95
2022-11-14T21:18:45.178Z,12.12
2022-11-14T21:21:18.535Z,12.10
2022-11-14T21:23:48.243Z,12.13
2022-11-14T21:26:18.502Z,12.17
2022-11-14T21:28:51.739Z,12.26
2022-11-14T21:31:22.581Z,12.22
2022-11-14T21:33:52.763Z,12.14
2022-11-14T21:36:43.810Z,12.20
2022-11-14T21:39:14.961Z,12.05
2022-11-14T21:41:45.295Z,11.89
2022-11-14T21:44:18.040Z,11.64
2022-11-14T21:46:49.582Z,11.66
2022-11-14T21:49:19.234Z,11.79
2022-11-14T21:51:48.937Z,11.84
2022-11-14T21:54:18.489Z,11.90
2022-11-14T21:56:47.932Z,11.83
2022-11-14T21:59:23.863Z,11.81
2022-11-14T22:02:06.088Z,11.85
2022-11-14T22:04:35.802Z,11.89
2022-11-14T22:07:07.595Z,11.91
2022-11-14T22:09:42.592Z,12.05
2022-11-14T22:12:14.534Z,11.86
2022-11-14T22:14:46.579Z,11.97
2022-11-14T22:17:16.020Z,11.84
2022-11-14T22:19:45.487Z,11.79
2022-11-14T22:22:14.960Z,11.97
2022-11-14T22:24:44.422Z,11.99
2022-11-14T22:27:13.895Z,11.99
2022-11-14T22:29:45.948Z,11.92
2022-11-14T22:32:15.428Z,11.95
2022-11-14T22:34:44.886Z,11.96
2022-11-14T22:37:14.345Z,11.58
2022-11-14T22:39:43.804Z,11.04
2022-11-14T22:42:13.436Z,11.23
2022-11-14T22:44:42.933Z,11.50
2022-11-14T22:47:15.002Z,11.66
2022-11-14T22:49:44.442Z,11.66
2022-11-14T22:52:13.871Z,11.70
2022-11-14T22:54:43.339Z,11.74
2022-11-14T22:57:12.816Z,11.72
2022-11-14T22:59:42.273Z,11.66
2022-11-14T23:02:11.734Z,11.57
2022-11-14T23:04:43.807Z,11.55
2022-11-14T23:07:13.354Z,11.49
2022-11-14T23:09:43.710Z,11.48
2022-11-14T23:12:13.437Z,11.54
2022-11-14T23:14:42.895Z,11.63
2022-11-14T23:17:12.402Z,11.61
2022-11-14T23:19:44.448Z,11.58
2022-11-14T23:22:13.929Z,11.41
2022-11-14T23:24:43.393Z,11.53
2022-11-14T23:27:12.854Z,11.58
2022-11-14T23:29:42.302Z,11.68
2022-11-14T23:32:11.754Z,11.76
2022-11-14T23:34:43.805Z,11.77
2022-11-14T23:37:13.284Z,11.70
2022-11-14T23:39:42.785Z,11.72
2022-11-14T23:42:12.318Z,11.72
2022-11-14T23:44:41.912Z,11.75
2022-11-14T23:47:11.364Z,11.80
2022-11-14T23:49:40.842Z,11.79
2022-11-14T23:52:12.845Z,11.81
2022-11-14T23:54:42.328Z,11.75
2022-11-14T23:57:11.869Z,11.72
2022-11-14T23:59:41.322Z,11.72
